sensor_id;sensor_type;location;lat;lon;timestamp;temperature;humidity
16517;DHT22;8371;52.272;9.746;2023-04-24T00:01:55;14.30;60.80
16517;DHT22;8371;52.272;9.746;2023-04-24T00:04:21;14.30;60.80
16517;DHT22;8371;52.272;9.746;2023-04-24T00:06:47;14.30;61.00
16517;DHT22;8371;52.272;9.746;2023-04-24T00:09:14;14.20;60.80
16517;DHT22;8371;52.272;9.746;2023-04-24T00:11:41;14.20;60.90
16517;DHT22;8371;52.272;9.746;2023-04-24T00:14:07;14.10;61.00
16517;DHT22;8371;52.272;9.746;2023-04-24T00:16:32;14.10;61.00
16517;DHT22;8371;52.272;9.746;2023-04-24T00:18:58;14.00;61.20
16517;DHT22;8371;52.272;9.746;2023-04-24T00:21:26;13.90;61.30
16517;DHT22;8371;52.272;9.746;2023-04-24T00:23:52;13.90;61.40
16517;DHT22;8371;52.272;9.746;2023-04-24T00:26:18;13.90;61.50
16517;DHT22;8371;52.272;9.746;2023-04-24T00:28:44;13.80;61.60
16517;DHT22;8371;52.272;9.746;2023-04-24T00:31:10;13.80;61.70
16517;DHT22;8371;52.272;9.746;2023-04-24T00:33:35;13.80;61.80
16517;DHT22;8371;52.272;9.746;2023-04-24T00:36:01;13.80;62.20
16517;DHT22;8371;52.272;9.746;2023-04-24T00:38:27;13.80;62.30
16517;DHT22;8371;52.272;9.746;2023-04-24T00:40:53;13.70;62.30
16517;DHT22;8371;52.272;9.746;2023-04-24T00:43:19;13.70;62.30
16517;DHT22;8371;52.272;9.746;2023-04-24T00:45:46;13.80;62.10
16517;DHT22;8371;52.272;9.746;2023-04-24T00:48:12;13.80;62.20
16517;DHT22;8371;52.272;9.746;2023-04-24T00:50:38;13.80;62.20
16517;DHT22;8371;52.272;9.746;2023-04-24T00:53:04;13.80;62.30
16517;DHT22;8371;52.272;9.746;2023-04-24T00:55:30;13.80;62.10
16517;DHT22;8371;52.272;9.746;2023-04-24T00:57:57;13.70;62.00
16517;DHT22;8371;52.272;9.746;2023-04-24T01:00:23;13.70;62.00
16517;DHT22;8371;52.272;9.746;2023-04-24T01:02:49;13.70;61.90
16517;DHT22;8371;52.272;9.746;2023-04-24T01:05:17;13.70;62.00
16517;DHT22;8371;52.272;9.746;2023-04-24T01:07:45;13.70;61.80
16517;DHT22;8371;52.272;9.746;2023-04-24T01:10:14;13.60;61.70
16517;DHT22;8371;52.272;9.746;2023-04-24T01:12:40;13.60;61.80
16517;DHT22;8371;52.272;9.746;2023-04-24T01:15:07;13.60;61.80
16517;DHT22;8371;52.272;9.746;2023-04-24T01:17:33;13.50;61.70
16517;DHT22;8371;52.272;9.746;2023-04-24T01:20:00;13.50;61.80
16517;DHT22;8371;52.272;9.746;2023-04-24T01:22:26;13.50;61.70
16517;DHT22;8371;52.272;9.746;2023-04-24T01:24:53;13.40;61.60
16517;DHT22;8371;52.272;9.746;2023-04-24T01:27:19;13.40;61.70
16517;DHT22;8371;52.272;9.746;2023-04-24T01:29:45;13.30;61.60
16517;DHT22;8371;52.272;9.746;2023-04-24T01:32:11;13.20;61.60
16517;DHT22;8371;52.272;9.746;2023-04-24T01:34:38;13.10;61.60
16517;DHT22;8371;52.272;9.746;2023-04-24T01:37:04;13.10;61.70
16517;DHT22;8371;52.272;9.746;2023-04-24T01:39:30;13.00;61.70
16517;DHT22;8371;52.272;9.746;2023-04-24T01:41:56;13.00;61.70
16517;DHT22;8371;52.272;9.746;2023-04-24T01:44:23;12.80;61.60
16517;DHT22;8371;52.272;9.746;2023-04-24T01:46:48;12.80;61.80
16517;DHT22;8371;52.272;9.746;2023-04-24T01:49:14;12.70;61.80
16517;DHT22;8371;52.272;9.746;2023-04-24T01:51:41;12.60;62.10
16517;DHT22;8371;52.272;9.746;2023-04-24T01:54:06;12.50;62.00
16517;DHT22;8371;52.272;9.746;2023-04-24T01:56:33;12.40;62.20
16517;DHT22;8371;52.272;9.746;2023-04-24T01:59:02;12.40;62.40
16517;DHT22;8371;52.272;9.746;2023-04-24T02:01:34;12.20;62.50
16517;DHT22;8371;52.272;9.746;2023-04-24T02:04:01;12.20;62.70
16517;DHT22;8371;52.272;9.746;2023-04-24T02:06:27;12.10;62.80
16517;DHT22;8371;52.272;9.746;2023-04-24T02:08:53;12.10;62.90
16517;DHT22;8371;52.272;9.746;2023-04-24T02:11:18;12.10;63.20
16517;DHT22;8371;52.272;9.746;2023-04-24T02:13:44;12.00;64.00
16517;DHT22;8371;52.272;9.746;2023-04-24T02:16:10;11.90;63.30
16517;DHT22;8371;52.272;9.746;2023-04-24T02:18:36;11.90;63.50
16517;DHT22;8371;52.272;9.746;2023-04-24T02:21:02;11.90;63.50
16517;DHT22;8371;52.272;9.746;2023-04-24T02:23:28;11.80;63.60
16517;DHT22;8371;52.272;9.746;2023-04-24T02:25:53;11.80;63.70
16517;DHT22;8371;52.272;9.746;2023-04-24T02:28:19;11.80;63.70
16517;DHT22;8371;52.272;9.746;2023-04-24T02:30:45;11.70;63.80
16517;DHT22;8371;52.272;9.746;2023-04-24T02:33:11;11.70;63.80
16517;DHT22;8371;52.272;9.746;2023-04-24T02:35:37;11.60;63.90
16517;DHT22;8371;52.272;9.746;2023-04-24T02:38:03;11.60;64.00
16517;DHT22;8371;52.272;9.746;2023-04-24T02:40:29;11.50;64.10
16517;DHT22;8371;52.272;9.746;2023-04-24T02:42:55;11.50;64.20
16517;DHT22;8371;52.272;9.746;2023-04-24T02:45:21;11.40;64.20
16517;DHT22;8371;52.272;9.746;2023-04-24T02:47:47;11.40;64.50
16517;DHT22;8371;52.272;9.746;2023-04-24T02:50:13;11.30;64.50
16517;DHT22;8371;52.272;9.746;2023-04-24T02:52:38;11.30;64.60
16517;DHT22;8371;52.272;9.746;2023-04-24T02:55:05;11.20;64.80
16517;DHT22;8371;52.272;9.746;2023-04-24T02:57:30;11.20;64.90
16517;DHT22;8371;52.272;9.746;2023-04-24T02:59:56;11.20;65.00
16517;DHT22;8371;52.272;9.746;2023-04-24T03:02:22;11.20;65.20
16517;DHT22;8371;52.272;9.746;2023-04-24T03:04:48;11.20;65.40
16517;DHT22;8371;52.272;9.746;2023-04-24T03:07:14;11.20;65.50
16517;DHT22;8371;52.272;9.746;2023-04-24T03:09:41;11.20;65.80
16517;DHT22;8371;52.272;9.746;2023-04-24T03:12:07;11.20;65.70
16517;DHT22;8371;52.272;9.746;2023-04-24T03:14:33;11.20;65.80
16517;DHT22;8371;52.272;9.746;2023-04-24T03:16:59;11.20;65.70
16517;DHT22;8371;52.272;9.746;2023-04-24T03:19:25;11.20;65.60
16517;DHT22;8371;52.272;9.746;2023-04-24T03:21:51;11.30;65.70
16517;DHT22;8371;52.272;9.746;2023-04-24T03:24:16;11.20;65.40
16517;DHT22;8371;52.272;9.746;2023-04-24T03:26:42;11.30;65.30
16517;DHT22;8371;52.272;9.746;2023-04-24T03:29:08;11.30;65.20
16517;DHT22;8371;52.272;9.746;2023-04-24T03:31:33;11.20;64.90
16517;DHT22;8371;52.272;9.746;2023-04-24T03:34:00;11.20;64.90
16517;DHT22;8371;52.272;9.746;2023-04-24T03:36:25;11.10;64.90
16517;DHT22;8371;52.272;9.746;2023-04-24T03:38:51;11.00;64.90
16517;DHT22;8371;52.272;9.746;2023-04-24T03:41:17;11.00;65.00
16517;DHT22;8371;52.272;9.746;2023-04-24T03:43:43;11.00;65.10
16517;DHT22;8371;52.272;9.746;2023-04-24T03:46:08;10.90;65.10
16517;DHT22;8371;52.272;9.746;2023-04-24T03:48:35;10.80;65.10
16517;DHT22;8371;52.272;9.746;2023-04-24T03:51:00;10.80;65.30
16517;DHT22;8371;52.272;9.746;2023-04-24T03:53:26;10.80;65.60
16517;DHT22;8371;52.272;9.746;2023-04-24T03:55:53;10.70;65.50
16517;DHT22;8371;52.272;9.746;2023-04-24T03:58:18;10.70;65.70
16517;DHT22;8371;52.272;9.746;2023-04-24T04:00:44;10.60;65.60
16517;DHT22;8371;52.272;9.746;2023-04-24T04:03:12;10.60;65.70
16517;DHT22;8371;52.272;9.746;2023-04-24T04:05:39;10.60;65.90
16517;DHT22;8371;52.272;9.746;2023-04-24T04:08:05;10.50;66.10
16517;DHT22;8371;52.272;9.746;2023-04-24T04:10:30;10.50;66.40
16517;DHT22;8371;52.272;9.746;2023-04-24T04:12:56;10.50;68.00
16517;DHT22;8371;52.272;9.746;2023-04-24T04:15:22;10.50;66.90
16517;DHT22;8371;52.272;9.746;2023-04-24T04:17:48;10.50;66.90
16517;DHT22;8371;52.272;9.746;2023-04-24T04:20:13;10.60;67.00
16517;DHT22;8371;52.272;9.746;2023-04-24T04:22:39;10.50;67.20
16517;DHT22;8371;52.272;9.746;2023-04-24T04:25:05;10.60;67.50
16517;DHT22;8371;52.272;9.746;2023-04-24T04:27:32;10.70;67.80
16517;DHT22;8371;52.272;9.746;2023-04-24T04:29:58;10.70;68.00
16517;DHT22;8371;52.272;9.746;2023-04-24T04:32:26;10.90;68.20
16517;DHT22;8371;52.272;9.746;2023-04-24T04:34:52;11.00;68.60
16517;DHT22;8371;52.272;9.746;2023-04-24T04:37:19;11.10;67.90
16517;DHT22;8371;52.272;9.746;2023-04-24T04:39:44;11.10;67.60
16517;DHT22;8371;52.272;9.746;2023-04-24T04:42:10;11.20;67.50
16517;DHT22;8371;52.272;9.746;2023-04-24T04:44:36;11.30;68.30
16517;DHT22;8371;52.272;9.746;2023-04-24T04:47:02;11.40;68.20
16517;DHT22;8371;52.272;9.746;2023-04-24T04:49:29;11.40;67.70
16517;DHT22;8371;52.272;9.746;2023-04-24T04:51:56;11.50;68.80
16517;DHT22;8371;52.272;9.746;2023-04-24T04:54:21;11.60;68.20
16517;DHT22;8371;52.272;9.746;2023-04-24T04:56:49;11.60;67.90
16517;DHT22;8371;52.272;9.746;2023-04-24T04:59:15;11.70;67.70
16517;DHT22;8371;52.272;9.746;2023-04-24T05:01:41;11.80;67.60
16517;DHT22;8371;52.272;9.746;2023-04-24T05:04:07;11.90;67.70
16517;DHT22;8371;52.272;9.746;2023-04-24T05:06:33;12.00;67.60
16517;DHT22;8371;52.272;9.746;2023-04-24T05:08:59;12.00;67.70
16517;DHT22;8371;52.272;9.746;2023-04-24T05:11:24;12.10;67.90
16517;DHT22;8371;52.272;9.746;2023-04-24T05:13:50;12.20;67.80
16517;DHT22;8371;52.272;9.746;2023-04-24T05:16:15;12.30;67.90
16517;DHT22;8371;52.272;9.746;2023-04-24T05:18:41;12.40;67.70
16517;DHT22;8371;52.272;9.746;2023-04-24T05:21:07;12.50;67.90
16517;DHT22;8371;52.272;9.746;2023-04-24T05:23:32;12.50;67.70
16517;DHT22;8371;52.272;9.746;2023-04-24T05:25:58;12.60;68.50
16517;DHT22;8371;52.272;9.746;2023-04-24T05:28:24;12.70;67.90
16517;DHT22;8371;52.272;9.746;2023-04-24T05:30:51;12.80;67.80
16517;DHT22;8371;52.272;9.746;2023-04-24T05:33:17;12.90;68.00
16517;DHT22;8371;52.272;9.746;2023-04-24T05:35:43;13.00;68.10
16517;DHT22;8371;52.272;9.746;2023-04-24T05:38:12;13.20;68.20
16517;DHT22;8371;52.272;9.746;2023-04-24T05:40:38;13.30;68.10
16517;DHT22;8371;52.272;9.746;2023-04-24T05:43:04;13.40;67.90
16517;DHT22;8371;52.272;9.746;2023-04-24T05:45:30;13.50;67.60
16517;DHT22;8371;52.272;9.746;2023-04-24T05:47:56;13.70;67.40
16517;DHT22;8371;52.272;9.746;2023-04-24T05:50:21;13.80;67.30
16517;DHT22;8371;52.272;9.746;2023-04-24T05:52:47;13.90;67.10
16517;DHT22;8371;52.272;9.746;2023-04-24T05:55:13;13.90;66.70
16517;DHT22;8371;52.272;9.746;2023-04-24T05:57:38;14.00;66.20
16517;DHT22;8371;52.272;9.746;2023-04-24T06:00:07;14.00;65.80
16517;DHT22;8371;52.272;9.746;2023-04-24T06:02:33;14.10;65.30
16517;DHT22;8371;52.272;9.746;2023-04-24T06:04:59;14.10;65.00
16517;DHT22;8371;52.272;9.746;2023-04-24T06:07:25;14.10;64.60
16517;DHT22;8371;52.272;9.746;2023-04-24T06:09:54;14.10;63.90
16517;DHT22;8371;52.272;9.746;2023-04-24T06:12:20;14.10;64.50
16517;DHT22;8371;52.272;9.746;2023-04-24T06:14:45;14.10;64.60
16517;DHT22;8371;52.272;9.746;2023-04-24T06:17:12;14.00;64.60
16517;DHT22;8371;52.272;9.746;2023-04-24T06:19:38;14.00;64.80
16517;DHT22;8371;52.272;9.746;2023-04-24T06:22:04;13.90;64.80
16517;DHT22;8371;52.272;9.746;2023-04-24T06:24:29;13.90;65.00
16517;DHT22;8371;52.272;9.746;2023-04-24T06:26:55;13.90;65.00
16517;DHT22;8371;52.272;9.746;2023-04-24T06:29:22;13.80;65.00
16517;DHT22;8371;52.272;9.746;2023-04-24T06:31:48;13.80;65.10
16517;DHT22;8371;52.272;9.746;2023-04-24T06:34:14;13.80;65.10
16517;DHT22;8371;52.272;9.746;2023-04-24T06:36:40;13.90;65.20
16517;DHT22;8371;52.272;9.746;2023-04-24T06:39:05;13.90;65.20
16517;DHT22;8371;52.272;9.746;2023-04-24T06:41:31;13.90;65.20
16517;DHT22;8371;52.272;9.746;2023-04-24T06:43:57;13.90;65.20
16517;DHT22;8371;52.272;9.746;2023-04-24T06:46:22;14.00;65.30
16517;DHT22;8371;52.272;9.746;2023-04-24T06:48:50;14.00;65.30
16517;DHT22;8371;52.272;9.746;2023-04-24T06:51:16;14.10;65.20
16517;DHT22;8371;52.272;9.746;2023-04-24T06:53:43;14.20;65.10
16517;DHT22;8371;52.272;9.746;2023-04-24T06:56:09;14.20;65.10
16517;DHT22;8371;52.272;9.746;2023-04-24T06:58:35;14.20;64.90
16517;DHT22;8371;52.272;9.746;2023-04-24T07:01:00;14.20;64.60
16517;DHT22;8371;52.272;9.746;2023-04-24T07:03:26;14.20;64.20
16517;DHT22;8371;52.272;9.746;2023-04-24T07:05:51;14.20;63.90
16517;DHT22;8371;52.272;9.746;2023-04-24T07:08:18;14.20;63.80
16517;DHT22;8371;52.272;9.746;2023-04-24T07:10:46;14.20;63.80
16517;DHT22;8371;52.272;9.746;2023-04-24T07:13:11;14.20;63.80
16517;DHT22;8371;52.272;9.746;2023-04-24T07:15:37;14.20;64.00
16517;DHT22;8371;52.272;9.746;2023-04-24T07:18:03;14.20;64.00
16517;DHT22;8371;52.272;9.746;2023-04-24T07:20:28;14.20;64.10
16517;DHT22;8371;52.272;9.746;2023-04-24T07:22:54;14.20;64.30
16517;DHT22;8371;52.272;9.746;2023-04-24T07:25:20;14.20;64.20
16517;DHT22;8371;52.272;9.746;2023-04-24T07:27:46;14.30;64.30
16517;DHT22;8371;52.272;9.746;2023-04-24T07:30:11;14.40;64.40
16517;DHT22;8371;52.272;9.746;2023-04-24T07:32:37;14.50;64.30
16517;DHT22;8371;52.272;9.746;2023-04-24T07:35:03;14.60;64.30
16517;DHT22;8371;52.272;9.746;2023-04-24T07:37:29;14.80;64.50
16517;DHT22;8371;52.272;9.746;2023-04-24T07:39:55;14.90;64.40
16517;DHT22;8371;52.272;9.746;2023-04-24T07:42:23;15.10;64.40
16517;DHT22;8371;52.272;9.746;2023-04-24T07:44:49;15.30;64.20
16517;DHT22;8371;52.272;9.746;2023-04-24T07:47:16;15.50;63.90
16517;DHT22;8371;52.272;9.746;2023-04-24T07:49:42;15.70;63.70
16517;DHT22;8371;52.272;9.746;2023-04-24T07:52:08;15.80;63.30
16517;DHT22;8371;52.272;9.746;2023-04-24T07:54:34;16.00;63.20
16517;DHT22;8371;52.272;9.746;2023-04-24T07:56:59;16.20;62.90
16517;DHT22;8371;52.272;9.746;2023-04-24T07:59:26;16.40;62.70
16517;DHT22;8371;52.272;9.746;2023-04-24T08:01:52;16.50;62.50
16517;DHT22;8371;52.272;9.746;2023-04-24T08:04:18;16.70;62.50
16517;DHT22;8371;52.272;9.746;2023-04-24T08:06:44;16.90;62.40
16517;DHT22;8371;52.272;9.746;2023-04-24T08:09:09;17.10;62.10
16517;DHT22;8371;52.272;9.746;2023-04-24T08:11:35;17.20;61.90
16517;DHT22;8371;52.272;9.746;2023-04-24T08:14:00;17.40;61.20
16517;DHT22;8371;52.272;9.746;2023-04-24T08:16:29;17.50;60.40
16517;DHT22;8371;52.272;9.746;2023-04-24T08:18:54;17.60;60.40
16517;DHT22;8371;52.272;9.746;2023-04-24T08:21:20;17.70;60.30
16517;DHT22;8371;52.272;9.746;2023-04-24T08:23:46;17.80;59.80
16517;DHT22;8371;52.272;9.746;2023-04-24T08:26:12;17.90;59.80
16517;DHT22;8371;52.272;9.746;2023-04-24T08:28:40;17.90;59.60
16517;DHT22;8371;52.272;9.746;2023-04-24T08:31:09;18.00;59.40
16517;DHT22;8371;52.272;9.746;2023-04-24T08:33:35;18.00;59.00
16517;DHT22;8371;52.272;9.746;2023-04-24T08:36:05;18.10;58.70
16517;DHT22;8371;52.272;9.746;2023-04-24T08:38:31;18.10;58.70
16517;DHT22;8371;52.272;9.746;2023-04-24T08:40:59;18.10;58.70
16517;DHT22;8371;52.272;9.746;2023-04-24T08:43:25;18.20;58.70
16517;DHT22;8371;52.272;9.746;2023-04-24T08:45:52;18.20;58.80
16517;DHT22;8371;52.272;9.746;2023-04-24T08:48:18;18.30;58.50
16517;DHT22;8371;52.272;9.746;2023-04-24T08:50:44;18.30;58.30
16517;DHT22;8371;52.272;9.746;2023-04-24T08:53:10;18.40;58.80
16517;DHT22;8371;52.272;9.746;2023-04-24T08:55:37;18.50;57.80
16517;DHT22;8371;52.272;9.746;2023-04-24T08:58:03;18.50;57.80
16517;DHT22;8371;52.272;9.746;2023-04-24T09:00:29;18.50;57.50
16517;DHT22;8371;52.272;9.746;2023-04-24T09:02:56;18.50;57.30
16517;DHT22;8371;52.272;9.746;2023-04-24T09:05:22;18.40;56.40
16517;DHT22;8371;52.272;9.746;2023-04-24T09:07:53;18.40;57.00
16517;DHT22;8371;52.272;9.746;2023-04-24T09:10:21;18.40;57.30
16517;DHT22;8371;52.272;9.746;2023-04-24T09:12:47;18.40;57.50
16517;DHT22;8371;52.272;9.746;2023-04-24T09:15:14;18.40;57.40
16517;DHT22;8371;52.272;9.746;2023-04-24T09:17:40;18.50;57.30
16517;DHT22;8371;52.272;9.746;2023-04-24T09:20:08;18.50;57.30
16517;DHT22;8371;52.272;9.746;2023-04-24T09:22:34;18.60;57.10
16517;DHT22;8371;52.272;9.746;2023-04-24T09:25:05;18.60;57.00
16517;DHT22;8371;52.272;9.746;2023-04-24T09:27:33;18.60;55.80
16517;DHT22;8371;52.272;9.746;2023-04-24T09:29:59;18.60;55.90
16517;DHT22;8371;52.272;9.746;2023-04-24T09:32:25;18.60;56.30
16517;DHT22;8371;52.272;9.746;2023-04-24T09:35:10;18.60;56.30
16517;DHT22;8371;52.272;9.746;2023-04-24T09:37:39;18.70;56.40
16517;DHT22;8371;52.272;9.746;2023-04-24T09:42:51;19.00;56.60
16517;DHT22;8371;52.272;9.746;2023-04-24T09:45:16;19.20;56.60
16517;DHT22;8371;52.272;9.746;2023-04-24T09:47:42;19.40;56.30
16517;DHT22;8371;52.272;9.746;2023-04-24T09:50:16;19.50;55.90
16517;DHT22;8371;52.272;9.746;2023-04-24T09:52:43;19.70;55.60
16517;DHT22;8371;52.272;9.746;2023-04-24T09:55:21;19.80;55.20
16517;DHT22;8371;52.272;9.746;2023-04-24T09:57:55;19.80;54.60
16517;DHT22;8371;52.272;9.746;2023-04-24T10:00:29;19.80;54.20
16517;DHT22;8371;52.272;9.746;2023-04-24T10:02:58;19.70;54.00
16517;DHT22;8371;52.272;9.746;2023-04-24T10:05:28;19.60;54.00
16517;DHT22;8371;52.272;9.746;2023-04-24T10:08:05;19.50;53.70
16517;DHT22;8371;52.272;9.746;2023-04-24T10:10:33;19.40;53.90
16517;DHT22;8371;52.272;9.746;2023-04-24T10:13:00;19.30;53.90
16517;DHT22;8371;52.272;9.746;2023-04-24T10:15:27;19.10;54.00
16517;DHT22;8371;52.272;9.746;2023-04-24T10:17:53;19.10;54.60
16517;DHT22;8371;52.272;9.746;2023-04-24T10:20:24;19.10;55.30
16517;DHT22;8371;52.272;9.746;2023-04-24T10:22:53;19.20;55.50
16517;DHT22;8371;52.272;9.746;2023-04-24T10:25:26;19.40;55.40
16517;DHT22;8371;52.272;9.746;2023-04-24T10:27:53;19.60;54.80
16517;DHT22;8371;52.272;9.746;2023-04-24T10:30:21;19.60;54.50
16517;DHT22;8371;52.272;9.746;2023-04-24T10:32:47;19.70;54.00
16517;DHT22;8371;52.272;9.746;2023-04-24T10:35:14;19.70;53.60
16517;DHT22;8371;52.272;9.746;2023-04-24T10:37:44;19.60;53.30
16517;DHT22;8371;52.272;9.746;2023-04-24T10:40:12;19.50;53.20
16517;DHT22;8371;52.272;9.746;2023-04-24T10:42:40;19.50;53.30
16517;DHT22;8371;52.272;9.746;2023-04-24T10:45:27;19.40;53.30
16517;DHT22;8371;52.272;9.746;2023-04-24T10:47:40;19.20;53.10
16517;DHT22;8371;52.272;9.746;2023-04-24T10:50:11;19.20;53.30
16517;DHT22;8371;52.272;9.746;2023-04-24T10:52:47;19.20;53.40
16517;DHT22;8371;52.272;9.746;2023-04-24T10:55:14;19.10;53.60
16517;DHT22;8371;52.272;9.746;2023-04-24T11:00:27;19.10;53.50
16517;DHT22;8371;52.272;9.746;2023-04-24T11:02:53;19.10;53.30
16517;DHT22;8371;52.272;9.746;2023-04-24T11:05:20;19.00;53.10
16517;DHT22;8371;52.272;9.746;2023-04-24T11:08:11;18.90;53.00
16517;DHT22;8371;52.272;9.746;2023-04-24T11:10:54;18.80;52.90
16517;DHT22;8371;52.272;9.746;2023-04-24T11:13:06;18.60;52.80
16517;DHT22;8371;52.272;9.746;2023-04-24T11:15:32;18.40;52.70
16517;DHT22;8371;52.272;9.746;2023-04-24T11:17:58;18.30;53.00
16517;DHT22;8371;52.272;9.746;2023-04-24T11:20:23;18.20;53.30
16517;DHT22;8371;52.272;9.746;2023-04-24T11:22:53;18.10;53.60
16517;DHT22;8371;52.272;9.746;2023-04-24T11:25:21;18.00;53.70
16517;DHT22;8371;52.272;9.746;2023-04-24T11:27:49;18.00;53.90
16517;DHT22;8371;52.272;9.746;2023-04-24T11:30:20;18.00;54.00
16517;DHT22;8371;52.272;9.746;2023-04-24T11:32:50;18.10;54.00
16517;DHT22;8371;52.272;9.746;2023-04-24T11:35:19;18.10;54.00
16517;DHT22;8371;52.272;9.746;2023-04-24T11:37:47;18.20;53.90
16517;DHT22;8371;52.272;9.746;2023-04-24T11:40:17;18.20;54.00
16517;DHT22;8371;52.272;9.746;2023-04-24T11:42:50;18.30;54.20
16517;DHT22;8371;52.272;9.746;2023-04-24T11:45:18;18.40;54.20
16517;DHT22;8371;52.272;9.746;2023-04-24T11:47:45;18.40;53.40
16517;DHT22;8371;52.272;9.746;2023-04-24T11:50:14;18.50;53.20
16517;DHT22;8371;52.272;9.746;2023-04-24T11:52:42;18.50;53.20
16517;DHT22;8371;52.272;9.746;2023-04-24T11:55:22;18.60;53.00
16517;DHT22;8371;52.272;9.746;2023-04-24T11:57:46;18.60;52.70
16517;DHT22;8371;52.272;9.746;2023-04-24T12:00:16;18.60;52.90
16517;DHT22;8371;52.272;9.746;2023-04-24T12:02:44;18.60;52.40
16517;DHT22;8371;52.272;9.746;2023-04-24T12:05:24;18.60;52.70
16517;DHT22;8371;52.272;9.746;2023-04-24T12:07:52;18.60;52.70
16517;DHT22;8371;52.272;9.746;2023-04-24T12:10:23;18.60;52.70
16517;DHT22;8371;52.272;9.746;2023-04-24T12:12:51;18.50;52.70
16517;DHT22;8371;52.272;9.746;2023-04-24T12:15:19;18.50;52.70
16517;DHT22;8371;52.272;9.746;2023-04-24T12:17:45;18.40;52.40
16517;DHT22;8371;52.272;9.746;2023-04-24T12:20:11;18.20;52.40
16517;DHT22;8371;52.272;9.746;2023-04-24T12:22:52;18.10;52.60
16517;DHT22;8371;52.272;9.746;2023-04-24T12:25:21;17.80;53.00
16517;DHT22;8371;52.272;9.746;2023-04-24T12:27:55;17.70;53.40
16517;DHT22;8371;52.272;9.746;2023-04-24T12:30:26;17.60;53.80
16517;DHT22;8371;52.272;9.746;2023-04-24T12:32:50;17.40;53.60
16517;DHT22;8371;52.272;9.746;2023-04-24T12:35:20;17.40;53.70
16517;DHT22;8371;52.272;9.746;2023-04-24T12:37:46;17.20;53.70
16517;DHT22;8371;52.272;9.746;2023-04-24T12:40:13;17.20;53.80
16517;DHT22;8371;52.272;9.746;2023-04-24T12:42:45;17.10;54.00
16517;DHT22;8371;52.272;9.746;2023-04-24T12:45:11;17.10;54.10
16517;DHT22;8371;52.272;9.746;2023-04-24T12:47:38;17.20;54.30
16517;DHT22;8371;52.272;9.746;2023-04-24T12:50:05;17.20;54.50
16517;DHT22;8371;52.272;9.746;2023-04-24T12:52:31;17.30;54.70
16517;DHT22;8371;52.272;9.746;2023-04-24T12:54:59;17.40;54.70
16517;DHT22;8371;52.272;9.746;2023-04-24T12:57:28;17.50;54.40
16517;DHT22;8371;52.272;9.746;2023-04-24T12:59:54;17.60;54.00
16517;DHT22;8371;52.272;9.746;2023-04-24T13:02:22;17.70;53.90
16517;DHT22;8371;52.272;9.746;2023-04-24T13:04:49;17.70;53.10
16517;DHT22;8371;52.272;9.746;2023-04-24T13:07:15;17.70;53.30
16517;DHT22;8371;52.272;9.746;2023-04-24T13:09:43;17.50;53.10
16517;DHT22;8371;52.272;9.746;2023-04-24T13:12:09;17.40;53.20
16517;DHT22;8371;52.272;9.746;2023-04-24T13:14:35;17.30;53.10
16517;DHT22;8371;52.272;9.746;2023-04-24T13:17:01;17.10;53.10
16517;DHT22;8371;52.272;9.746;2023-04-24T13:19:28;16.90;53.20
16517;DHT22;8371;52.272;9.746;2023-04-24T13:21:55;16.60;53.20
16517;DHT22;8371;52.272;9.746;2023-04-24T13:24:25;16.40;53.50
16517;DHT22;8371;52.272;9.746;2023-04-24T13:26:54;16.30;53.70
16517;DHT22;8371;52.272;9.746;2023-04-24T13:29:22;16.10;53.90
16517;DHT22;8371;52.272;9.746;2023-04-24T13:31:50;15.90;54.00
16517;DHT22;8371;52.272;9.746;2023-04-24T13:34:17;15.80;54.20
16517;DHT22;8371;52.272;9.746;2023-04-24T13:36:43;15.70;54.50
16517;DHT22;8371;52.272;9.746;2023-04-24T13:39:09;15.60;55.00
16517;DHT22;8371;52.272;9.746;2023-04-24T13:41:36;15.60;55.40
16517;DHT22;8371;52.272;9.746;2023-04-24T13:44:02;15.60;55.30
16517;DHT22;8371;52.272;9.746;2023-04-24T13:46:28;15.60;55.20
16517;DHT22;8371;52.272;9.746;2023-04-24T13:48:54;15.60;55.10
16517;DHT22;8371;52.272;9.746;2023-04-24T13:51:20;15.60;55.10
16517;DHT22;8371;52.272;9.746;2023-04-24T13:53:45;15.60;55.10
16517;DHT22;8371;52.272;9.746;2023-04-24T13:56:11;15.50;55.30
16517;DHT22;8371;52.272;9.746;2023-04-24T13:58:38;15.30;55.40
16517;DHT22;8371;52.272;9.746;2023-04-24T14:01:04;15.20;55.40
16517;DHT22;8371;52.272;9.746;2023-04-24T14:03:30;15.00;55.40
16517;DHT22;8371;52.272;9.746;2023-04-24T14:05:56;14.80;55.40
16517;DHT22;8371;52.272;9.746;2023-04-24T14:08:22;14.70;55.70
16517;DHT22;8371;52.272;9.746;2023-04-24T14:10:47;14.50;55.80
16517;DHT22;8371;52.272;9.746;2023-04-24T14:13:13;14.40;56.10
16517;DHT22;8371;52.272;9.746;2023-04-24T14:15:39;14.20;56.40
16517;DHT22;8371;52.272;9.746;2023-04-24T14:18:04;14.20;56.80
16517;DHT22;8371;52.272;9.746;2023-04-24T14:20:30;14.10;57.10
16517;DHT22;8371;52.272;9.746;2023-04-24T14:22:56;14.10;57.70
16517;DHT22;8371;52.272;9.746;2023-04-24T14:25:24;14.10;57.50
16517;DHT22;8371;52.272;9.746;2023-04-24T14:27:51;14.00;57.60
16517;DHT22;8371;52.272;9.746;2023-04-24T14:30:17;14.00;57.70
16517;DHT22;8371;52.272;9.746;2023-04-24T14:32:43;14.00;57.80
16517;DHT22;8371;52.272;9.746;2023-04-24T14:35:08;14.00;58.00
16517;DHT22;8371;52.272;9.746;2023-04-24T14:37:34;14.00;57.80
16517;DHT22;8371;52.272;9.746;2023-04-24T14:40:01;13.90;58.10
16517;DHT22;8371;52.272;9.746;2023-04-24T14:42:27;13.90;57.80
16517;DHT22;8371;52.272;9.746;2023-04-24T14:44:54;13.90;57.80
16517;DHT22;8371;52.272;9.746;2023-04-24T14:47:20;13.80;58.10
16517;DHT22;8371;52.272;9.746;2023-04-24T14:49:48;13.70;57.80
16517;DHT22;8371;52.272;9.746;2023-04-24T14:52:14;13.60;58.00
16517;DHT22;8371;52.272;9.746;2023-04-24T14:54:39;13.60;58.20
16517;DHT22;8371;52.272;9.746;2023-04-24T14:57:05;13.50;58.40
16517;DHT22;8371;52.272;9.746;2023-04-24T14:59:31;13.40;58.60
16517;DHT22;8371;52.272;9.746;2023-04-24T15:01:57;13.40;58.90
16517;DHT22;8371;52.272;9.746;2023-04-24T15:04:24;13.40;59.00
16517;DHT22;8371;52.272;9.746;2023-04-24T15:06:52;13.50;59.00
16517;DHT22;8371;52.272;9.746;2023-04-24T15:09:19;13.50;59.10
16517;DHT22;8371;52.272;9.746;2023-04-24T15:11:46;13.50;59.20
16517;DHT22;8371;52.272;9.746;2023-04-24T15:14:12;13.50;59.20
16517;DHT22;8371;52.272;9.746;2023-04-24T15:16:38;13.50;59.50
16517;DHT22;8371;52.272;9.746;2023-04-24T15:19:04;13.50;59.20
16517;DHT22;8371;52.272;9.746;2023-04-24T15:21:29;13.50;59.30
16517;DHT22;8371;52.272;9.746;2023-04-24T15:23:56;13.50;59.50
16517;DHT22;8371;52.272;9.746;2023-04-24T15:26:23;13.50;59.70
16517;DHT22;8371;52.272;9.746;2023-04-24T15:28:48;13.50;60.00
16517;DHT22;8371;52.272;9.746;2023-04-24T15:31:14;13.60;60.00
16517;DHT22;8371;52.272;9.746;2023-04-24T15:33:40;13.70;60.10
16517;DHT22;8371;52.272;9.746;2023-04-24T15:36:06;13.70;60.00
16517;DHT22;8371;52.272;9.746;2023-04-24T15:38:32;13.80;60.00
16517;DHT22;8371;52.272;9.746;2023-04-24T15:40:57;13.90;59.80
16517;DHT22;8371;52.272;9.746;2023-04-24T15:43:23;13.90;59.60
16517;DHT22;8371;52.272;9.746;2023-04-24T15:45:50;14.10;59.60
16517;DHT22;8371;52.272;9.746;2023-04-24T15:48:15;14.00;59.40